createdAt,value
2022-11-28T00:00:00.856Z,100994.66
2022-11-28T00:02:29.566Z,100993.44
2022-11-28T00:04:58.271Z,100994.25
2022-11-28T00:07:29.205Z,100982.81
2022-11-28T00:09:58.010Z,100981.38
2022-11-28T00:12:27.024Z,100998.47
2022-11-28T00:14:55.806Z,100985.88
2022-11-28T00:17:24.389Z,100977.22
2022-11-28T00:19:55.614Z,100979.72
2022-11-28T00:22:24.272Z,100978.06
2022-11-28T00:24:54.857Z,100974.19
2022-11-28T00:27:23.605Z,100967.16
2022-11-28T00:29:52.298Z,100968.28
2022-11-28T00:32:20.907Z,100970.53
2022-11-28T00:34:49.672Z,100965.78
2022-11-28T00:37:18.452Z,100971.34
2022-11-28T00:39:47.064Z,100962.56
2022-11-28T00:42:20.444Z,100964.09
2022-11-28T00:44:49.428Z,100968.84
2022-11-28T00:47:18.217Z,100963.13
2022-11-28T00:49:46.788Z,100951.06
2022-11-28T00:52:15.439Z,100952.94
2022-11-28T00:54:44.232Z,100944.09
2022-11-28T00:57:13.005Z,100946.66
2022-11-28T00:59:43.523Z,100943.84
2022-11-28T01:02:12.185Z,100950.38
2022-11-28T01:04:41.106Z,100946.09
2022-11-28T01:07:09.904Z,100939.50
2022-11-28T01:09:38.568Z,100934.19
2022-11-28T01:12:07.673Z,100934.47
2022-11-28T01:14:36.379Z,100936.16
2022-11-28T01:17:07.016Z,100928.91
2022-11-28T01:19:35.644Z,100931.13
2022-11-28T01:22:05.782Z,100925.00
2022-11-28T01:24:34.531Z,100929.75
2022-11-28T01:27:03.132Z,100921.22
2022-11-28T01:29:31.737Z,100921.06
2022-11-28T01:32:00.362Z,100917.16
2022-11-28T01:34:30.926Z,100907.38
2022-11-28T01:36:59.569Z,100924.72
2022-11-28T01:39:28.309Z,100924.44
2022-11-28T01:41:56.866Z,100919.56
2022-11-28T01:45:16.398Z,100924.22
2022-11-28T01:47:45.426Z,100914.72
2022-11-28T01:50:16.943Z,100916.25
2022-11-28T01:52:51.732Z,100915.69
2022-11-28T01:55:25.282Z,100921.00
2022-11-28T01:57:56.565Z,100921.72
2022-11-28T02:00:25.512Z,100915.56
2022-11-28T02:03:00.134Z,100916.13
2022-11-28T02:05:30.692Z,100915.28
2022-11-28T02:07:59.395Z,100912.34
2022-11-28T02:10:34.085Z,100904.94
2022-11-28T02:13:23.924Z,100900.03
2022-11-28T02:16:12.685Z,100902.66
2022-11-28T02:19:00.179Z,100902.00
2022-11-28T02:21:48.626Z,100901.00
2022-11-28T02:24:55.228Z,100900.59
2022-11-28T02:28:21.190Z,100903.09
2022-11-28T02:31:10.685Z,100899.19
2022-11-28T02:33:45.078Z,100905.22
2022-11-28T02:36:21.101Z,100902.53
2022-11-28T02:39:03.865Z,100905.91
2022-11-28T02:41:40.580Z,100897.34
2022-11-28T02:44:16.148Z,100899.88
2022-11-28T02:46:54.445Z,100906.59
2022-11-28T02:49:32.022Z,100904.94
2022-11-28T02:52:06.741Z,100908.28
2022-11-28T02:54:35.707Z,100916.69
2022-11-28T02:57:04.711Z,100908.84
2022-11-28T02:59:50.056Z,100899.88
2022-11-28T03:02:24.882Z,100904.06
2022-11-28T03:05:03.577Z,100905.47
2022-11-28T03:07:54.397Z,100894.84
2022-11-28T03:10:31.090Z,100886.41
2022-11-28T03:13:12.336Z,100897.78
2022-11-28T03:15:54.079Z,100893.16
2022-11-28T03:18:27.408Z,100893.16
2022-11-28T03:21:05.744Z,100892.00
2022-11-28T03:23:43.226Z,100890.50
2022-11-28T03:26:19.991Z,100897.34
2022-11-28T03:28:56.706Z,100893.16
2022-11-28T03:31:33.155Z,100897.50
2022-11-28T03:34:05.683Z,100891.19
2022-11-28T03:36:42.323Z,100894.56
2022-11-28T03:39:15.450Z,100896.50
2022-11-28T03:41:51.311Z,100893.84
2022-11-28T03:44:26.194Z,100890.34
2022-11-28T03:46:58.438Z,100898.47
2022-11-28T03:49:33.531Z,100897.88
2022-11-28T03:52:07.856Z,100897.34
2022-11-28T03:54:41.853Z,100900.97
2022-11-28T03:57:19.323Z,100901.97
2022-11-28T03:59:50.993Z,100902.13
2022-11-28T04:02:28.324Z,100906.91
2022-11-28T04:05:04.711Z,100908.69
2022-11-28T04:07:43.177Z,100907.72
2022-11-28T04:10:19.467Z,100904.78
2022-11-28T04:12:58.382Z,100906.47
2022-11-28T04:15:38.156Z,100902.94
2022-11-28T04:18:21.187Z,100907.28
2022-11-28T04:20:55.180Z,100912.78
2022-11-28T04:23:28.287Z,100916.69
2022-11-28T04:26:03.094Z,100914.28
2022-11-28T04:28:35.327Z,100910.94
2022-11-28T04:31:07.207Z,100915.28
2022-11-28T04:33:39.351Z,100917.38
2022-11-28T04:36:09.937Z,100914.72
2022-11-28T04:38:42.103Z,100907.44
2022-11-28T04:41:18.203Z,100912.22
2022-11-28T04:43:56.688Z,100904.50
2022-11-28T04:46:34.091Z,100903.53
2022-11-28T04:49:03.060Z,100910.25
2022-11-28T04:51:43.571Z,100915.28
2022-11-28T04:54:20.517Z,100909.94
2022-11-28T04:56:59.656Z,100917.94
2022-11-28T04:59:31.896Z,100917.81
2022-11-28T05:02:04.902Z,100915.97
2022-11-28T05:04:37.308Z,100917.81
2022-11-28T05:07:07.964Z,100922.28
2022-11-28T05:09:38.660Z,100922.28
2022-11-28T05:12:08.321Z,100922.00
2022-11-28T05:14:36.927Z,100920.59
2022-11-28T05:17:05.487Z,100934.34
2022-11-28T05:19:34.180Z,100930.16
2022-11-28T05:22:02.761Z,100936.44
2022-11-28T05:24:32.497Z,100941.50
2022-11-28T05:27:03.267Z,100943.44
2022-11-28T05:29:32.177Z,100943.31
2022-11-28T05:32:00.871Z,100942.03
2022-11-28T05:34:30.487Z,100951.56
2022-11-28T05:36:59.755Z,100954.22
2022-11-28T05:39:28.523Z,100946.38
2022-11-28T05:41:57.171Z,100947.09
2022-11-28T05:44:27.891Z,100944.44
2022-11-28T05:46:56.445Z,100943.44
2022-11-28T05:49:25.728Z,100939.81
2022-11-28T05:51:54.300Z,100948.50
2022-11-28T05:54:22.895Z,100948.78
2022-11-28T05:56:51.542Z,100945.13
2022-11-28T05:59:20.199Z,100952.84
2022-11-28T06:01:50.750Z,100954.81
2022-11-28T06:04:19.419Z,100952.25
2022-11-28T06:06:50.922Z,100953.94
2022-11-28T06:09:23.321Z,100943.44
2022-11-28T06:11:54.418Z,100945.84
2022-11-28T06:14:22.988Z,100951.16
2022-11-28T06:16:53.588Z,100959.97
2022-11-28T06:19:23.431Z,100964.06
2022-11-28T06:21:52.337Z,100971.75
2022-11-28T06:24:20.957Z,100961.81
2022-11-28T06:26:49.586Z,100963.06
2022-11-28T06:29:19.830Z,100960.84
2022-11-28T06:31:48.708Z,100954.81
2022-11-28T06:34:19.343Z,100961.81
2022-11-28T06:36:47.984Z,100961.50
2022-11-28T06:39:18.509Z,100959.69
2022-11-28T06:41:56.115Z,100957.88
2022-11-28T06:44:25.049Z,100969.78
2022-11-28T06:46:54.102Z,100970.47
2022-11-28T06:49:24.622Z,100974.16
2022-11-28T06:51:53.264Z,100973.84
2022-11-28T06:54:21.982Z,100981.44
2022-11-28T06:56:50.611Z,100980.84
2022-11-28T06:59:19.560Z,100977.47
2022-11-28T07:01:48.849Z,100975.53
2022-11-28T07:04:17.611Z,100983.13
2022-11-28T07:06:48.094Z,100987.31
2022-11-28T07:09:16.795Z,100991.50
2022-11-28T07:11:45.453Z,100992.91
2022-11-28T07:14:14.221Z,100996.56
2022-11-28T07:16:42.921Z,101002.72
2022-11-28T07:19:14.003Z,101005.50
2022-11-28T07:21:42.947Z,101003.28
2022-11-28T07:24:13.504Z,101000.06
2022-11-28T07:26:42.224Z,101006.22
2022-11-28T07:29:15.463Z,101002.44
2022-11-28T07:31:44.480Z,101012.97
2022-11-28T07:34:13.647Z,101004.81
2022-11-28T07:36:42.300Z,100999.66
2022-11-28T07:39:15.348Z,100992.91
2022-11-28T07:41:44.026Z,101002.16
2022-11-28T07:44:17.081Z,101008.34
2022-11-28T07:46:47.353Z,101016.44
2022-11-28T07:49:16.999Z,101020.09
2022-11-28T07:51:45.622Z,101027.38
2022-11-28T07:54:16.289Z,101021.78
2022-11-28T07:59:13.283Z,101023.75
2022-11-28T08:01:53.953Z,101019.69
2022-11-28T08:04:24.960Z,101023.31
2022-11-28T08:06:53.676Z,101018.84
2022-11-28T08:09:22.391Z,101016.75
2022-11-28T08:11:51.934Z,101029.06
2022-11-28T08:14:22.546Z,101026.28
2022-11-28T08:16:51.755Z,101031.47
2022-11-28T08:19:24.579Z,101031.63
2022-11-28T08:21:54.181Z,101028.66
2022-11-28T08:24:22.780Z,101036.09
2022-11-28T08:26:51.452Z,101032.44
2022-11-28T08:29:22.132Z,101041.41
2022-11-28T08:31:50.857Z,101038.59
2022-11-28T08:34:19.586Z,101044.78
2022-11-28T08:36:49.559Z,101040.16
2022-11-28T08:39:25.680Z,101049.00
2022-11-28T08:41:56.453Z,101042.56
2022-11-28T08:44:30.364Z,101038.06
2022-11-28T08:46:59.867Z,101038.59
2022-11-28T08:49:28.499Z,101042.13
2022-11-28T08:51:57.202Z,101039.88
2022-11-28T08:54:25.817Z,101040.16
2022-11-28T08:56:54.503Z,101041.00
2022-11-28T08:59:23.614Z,101046.16
2022-11-28T09:01:56.588Z,101044.22
2022-11-28T09:04:25.379Z,101038.34
2022-11-28T09:06:54.517Z,101044.38
2022-11-28T09:09:23.317Z,101037.19
2022-11-28T09:11:52.027Z,101044.38
2022-11-28T09:14:20.689Z,101046.75
2022-11-28T09:16:50.439Z,101050.94
2022-11-28T09:19:21.121Z,101047.03
2022-11-28T09:21:54.555Z,101037.19
2022-11-28T09:24:26.143Z,101047.56
2022-11-28T09:26:54.976Z,101054.59
2022-11-28T09:29:23.565Z,101049.25
2022-11-28T09:31:52.300Z,101047.41
2022-11-28T09:34:23.036Z,101043.78
2022-11-28T09:36:51.756Z,101049.81
2022-11-28T09:39:20.286Z,101040.00
2022-11-28T09:42:09.260Z,101048.81
2022-11-28T09:44:44.622Z,101052.91
2022-11-28T09:47:21.487Z,101054.97
2022-11-28T09:49:57.908Z,101050.22
2022-11-28T09:52:34.081Z,101054.13
2022-11-28T09:55:15.642Z,101060.88
2022-11-28T09:57:48.590Z,101069.00
2022-11-28T10:00:21.319Z,101069.41
2022-11-28T10:03:09.925Z,101073.06
2022-11-28T10:05:46.895Z,101073.88
2022-11-28T10:08:30.698Z,101087.09
2022-11-28T10:11:06.245Z,101077.00
2022-11-28T10:14:07.061Z,101080.38
2022-11-28T10:16:50.506Z,101072.91
2022-11-28T10:19:52.790Z,101086.84
2022-11-28T10:22:27.939Z,101076.53
2022-11-28T10:25:02.360Z,101080.47
2022-11-28T10:27:36.925Z,101074.31
2022-11-28T10:30:12.559Z,101070.03
2022-11-28T10:32:46.523Z,101068.78
2022-11-28T10:35:28.604Z,101064.25
2022-11-28T10:37:59.563Z,101067.59
2022-11-28T10:40:40.021Z,101074.34
2022-11-28T10:43:19.696Z,101072.06
2022-11-28T10:45:59.338Z,101073.75
2022-11-28T10:48:42.029Z,101081.59
2022-11-28T10:51:32.197Z,101079.63
2022-11-28T10:54:19.850Z,101088.50
2022-11-28T10:57:03.304Z,101080.88
2022-11-28T10:59:45.195Z,101087.47
2022-11-28T11:02:22.149Z,101089.66
2022-11-28T11:04:51.024Z,101081.84
2022-11-28T11:07:29.529Z,101089.28
2022-11-28T11:10:15.428Z,101089.28
2022-11-28T11:12:45.740Z,101082.66
2022-11-28T11:15:22.694Z,101092.19
2022-11-28T11:17:52.098Z,101087.97
2022-11-28T11:20:35.982Z,101082.06
2022-11-28T11:23:17.077Z,101088.25
2022-11-28T11:25:57.645Z,101090.78
2022-11-28T11:28:42.502Z,101088.50
2022-11-28T11:31:30.007Z,101085.28
2022-11-28T11:34:06.664Z,101084.84
2022-11-28T11:36:38.150Z,101081.72
2022-11-28T11:39:22.379Z,101088.22
2022-11-28T11:42:09.880Z,101086.19
2022-11-28T11:44:39.036Z,101095.59
2022-11-28T11:47:10.475Z,101091.94
2022-11-28T11:49:42.719Z,101090.66
2022-11-28T11:52:24.556Z,101090.56
2022-11-28T11:55:03.558Z,101083.53
2022-11-28T11:57:40.700Z,101082.72
2022-11-28T12:00:20.209Z,101087.88
2022-11-28T12:02:55.056Z,101080.56
2022-11-28T12:05:41.790Z,101085.91
2022-11-28T12:08:27.647Z,101079.97
2022-11-28T12:11:12.316Z,101081.03
2022-11-28T12:13:42.935Z,101079.75
2022-11-28T12:16:37.636Z,101074.13
2022-11-28T12:19:18.324Z,101076.72
2022-11-28T12:22:07.440Z,101077.88
2022-11-28T12:24:48.252Z,101086.13
2022-11-28T12:27:32.286Z,101081.63
2022-11-28T12:30:22.975Z,101083.69
2022-11-28T12:33:09.147Z,101089.72
2022-11-28T12:35:42.058Z,101095.47
2022-11-28T12:38:27.909Z,101102.22
2022-11-28T12:41:25.121Z,101104.50
2022-11-28T12:44:07.038Z,101102.81
2022-11-28T12:46:48.854Z,101106.91
2022-11-28T12:49:24.294Z,101105.22
2022-11-28T12:52:10.581Z,101110.19
2022-11-28T12:55:06.393Z,101116.66
2022-11-28T12:57:45.613Z,101116.34
2022-11-28T13:00:20.396Z,101108.34
2022-11-28T13:03:07.239Z,101111.31
2022-11-28T13:05:50.211Z,101110.72
2022-11-28T13:08:48.252Z,101102.69
2022-11-28T13:11:40.889Z,101109.44
2022-11-28T13:14:16.415Z,101104.97
2022-11-28T13:16:48.991Z,101105.88
2022-11-28T13:19:35.437Z,101110.06
2022-11-28T13:22:14.143Z,101107.94
2022-11-28T13:24:53.564Z,101106.41
2022-11-28T13:27:32.723Z,101110.91
2022-11-28T13:30:16.484Z,101116.25
2022-11-28T13:32:53.223Z,101123.00
2022-11-28T13:35:24.764Z,101124.69
2022-11-28T13:40:54.780Z,101120.84
2022-11-28T13:43:33.115Z,101113.34
2022-11-28T13:46:02.389Z,101118.41
2022-11-28T13:49:14.470Z,101126.72
2022-11-28T13:51:47.209Z,101131.09
2022-11-28T13:54:41.365Z,101131.25
2022-11-28T13:57:24.360Z,101133.59
2022-11-28T14:04:36.536Z,101137.56
2022-11-28T14:07:08.627Z,101135.38
2022-11-28T14:09:48.873Z,101132.78
2022-11-28T14:15:06.730Z,101138.34
2022-11-28T14:17:57.568Z,101135.19
2022-11-28T14:20:34.294Z,101137.44
2022-11-28T14:23:22.791Z,101132.84
2022-11-28T14:25:53.983Z,101140.56
2022-11-28T14:28:27.025Z,101146.22
2022-11-28T14:31:07.280Z,101147.34
2022-11-28T14:33:41.740Z,101143.41
2022-11-28T14:36:36.479Z,101135.53
2022-11-28T14:39:32.196Z,101142.94
2022-11-28T14:45:51.548Z,101148.50
2022-11-28T14:48:32.300Z,101147.66
2022-11-28T14:51:02.597Z,101141.19
2022-11-28T14:53:50.390Z,101150.66
2022-11-28T14:56:29.504Z,101150.31
2022-11-28T14:59:02.873Z,101162.19
2022-11-28T15:01:50.006Z,101162.63
2022-11-28T15:04:55.248Z,101171.13
2022-11-28T15:07:36.560Z,101168.28
2022-11-28T15:10:11.801Z,101175.47
2022-11-28T15:12:56.350Z,101179.81
2022-11-28T15:15:25.170Z,101183.16
2022-11-28T15:17:56.293Z,101190.19
2022-11-28T15:20:32.117Z,101183.50
2022-11-28T15:23:00.938Z,101188.53
2022-11-28T15:25:36.653Z,101186.72
2022-11-28T15:28:16.086Z,101188.00
2022-11-28T15:30:47.949Z,101189.66
2022-11-28T15:33:16.466Z,101206.06
2022-11-28T15:35:59.121Z,101207.22
2022-11-28T15:38:29.923Z,101207.91
2022-11-28T15:41:00.093Z,101198.72
2022-11-28T15:43:30.864Z,101205.22
2022-11-28T15:46:02.545Z,101211.00
2022-11-28T15:48:39.887Z,101217.91
2022-11-28T15:51:26.718Z,101223.56
2022-11-28T15:53:55.563Z,101228.75
2022-11-28T15:56:24.728Z,101227.78
2022-11-28T15:58:54.318Z,101234.94
2022-11-28T16:01:25.695Z,101233.25
2022-11-28T16:03:58.522Z,101239.59
2022-11-28T16:06:32.313Z,101243.25
2022-11-28T16:09:05.045Z,101243.25
2022-11-28T16:11:37.913Z,101245.53
2022-11-28T16:14:12.145Z,101245.53
2022-11-28T16:16:41.431Z,101244.84
2022-11-28T16:19:25.537Z,101249.34
2022-11-28T16:22:00.362Z,101249.81
2022-11-28T16:24:38.577Z,101244.47
2022-11-28T16:27:08.212Z,101244.66
2022-11-28T16:29:38.137Z,101251.00
2022-11-28T16:32:11.483Z,101253.13
2022-11-28T16:34:48.677Z,101257.22
2022-11-28T16:37:23.840Z,101258.19
2022-11-28T16:40:04.163Z,101248.50
2022-11-28T16:42:34.001Z,101259.75
2022-11-28T16:45:13.001Z,101258.34
2022-11-28T16:47:41.813Z,101257.66
2022-11-28T16:50:24.326Z,101265.25
2022-11-28T16:52:57.056Z,101266.50
2022-11-28T16:55:43.686Z,101258.38
2022-11-28T16:58:16.501Z,101257.78
2022-11-28T17:00:50.834Z,101263.28
2022-11-28T17:03:44.053Z,101264.81
2022-11-28T17:06:21.046Z,101267.63
2022-11-28T17:08:52.364Z,101278.75
2022-11-28T17:11:24.296Z,101284.50
2022-11-28T17:13:55.080Z,101280.25
2022-11-28T17:16:28.970Z,101287.72
2022-11-28T17:18:57.626Z,101287.88
2022-11-28T17:21:33.452Z,101292.22
2022-11-28T17:24:04.385Z,101301.31
2022-11-28T17:26:33.106Z,101302.47
2022-11-28T17:29:01.879Z,101297.13
2022-11-28T17:31:30.580Z,101301.75
2022-11-28T17:33:59.380Z,101300.22
2022-11-28T17:36:28.151Z,101306.38
2022-11-28T17:39:00.988Z,101304.09
2022-11-28T17:41:34.691Z,101303.38
2022-11-28T17:44:03.336Z,101305.75
2022-11-28T17:46:31.996Z,101313.75
2022-11-28T17:49:00.871Z,101318.38
2022-11-28T17:51:52.257Z,101318.81
2022-11-28T17:54:24.188Z,101323.56
2022-11-28T17:56:55.627Z,101323.66
2022-11-28T17:59:26.436Z,101329.59
2022-11-28T18:01:55.691Z,101323.81
2022-11-28T18:04:24.349Z,101323.66
2022-11-28T18:06:53.029Z,101322.69
2022-11-28T18:09:21.669Z,101326.06
2022-11-28T18:11:50.994Z,101322.16
2022-11-28T18:14:21.542Z,101326.50
2022-11-28T18:16:50.223Z,101338.00
2022-11-28T18:19:18.890Z,101335.75
2022-11-28T18:21:47.466Z,101342.75
2022-11-28T18:24:16.409Z,101336.31
2022-11-28T18:26:45.141Z,101338.59
2022-11-28T18:29:13.779Z,101350.78
2022-11-28T18:31:44.644Z,101344.50
2022-11-28T18:34:13.299Z,101344.59
2022-11-28T18:36:42.250Z,101352.59
2022-11-28T18:39:15.994Z,101349.25
2022-11-28T18:41:44.719Z,101350.91
2022-11-28T18:44:13.571Z,101352.91
2022-11-28T18:46:44.260Z,101367.91
2022-11-28T18:49:14.599Z,101360.19
2022-11-28T18:51:43.302Z,101359.31
2022-11-28T18:54:16.233Z,101357.63
2022-11-28T18:56:48.153Z,101363.56
2022-11-28T18:59:16.963Z,101363.56
2022-11-28T19:01:47.542Z,101361.88
2022-11-28T19:04:16.243Z,101367.63
2022-11-28T19:06:47.732Z,101365.25
2022-11-28T19:09:20.176Z,101375.91
2022-11-28T19:11:48.796Z,101373.25
2022-11-28T19:14:19.087Z,101369.72
2022-11-28T19:16:53.092Z,101380.25
2022-11-28T19:19:22.001Z,101382.66
2022-11-28T19:21:50.731Z,101381.94
2022-11-28T19:24:19.368Z,101380.97
2022-11-28T19:26:48.164Z,101373.66
2022-11-28T19:29:16.998Z,101370.28
2022-11-28T19:31:45.762Z,101383.63
2022-11-28T19:34:19.565Z,101380.13
2022-11-28T19:36:51.345Z,101383.78
2022-11-28T19:39:22.908Z,101382.50
2022-11-28T19:41:53.169Z,101381.38
2022-11-28T19:44:24.084Z,101391.06
2022-11-28T19:46:53.209Z,101392.03
2022-11-28T19:49:25.853Z,101396.25
2022-11-28T19:51:55.983Z,101393.56
2022-11-28T19:54:24.827Z,101387.16
2022-11-28T19:56:53.544Z,101387.00
2022-11-28T19:59:22.138Z,101383.34
2022-11-28T20:01:53.187Z,101391.09
2022-11-28T20:04:23.914Z,101391.34
2022-11-28T20:06:52.603Z,101407.25
2022-11-28T20:09:21.551Z,101402.59
2022-11-28T20:11:50.268Z,101401.19
2022-11-28T20:14:21.591Z,101405.41
2022-11-28T20:16:52.427Z,101404.69
2022-11-28T20:19:22.994Z,101412.44
2022-11-28T20:21:51.648Z,101406.84
2022-11-28T20:25:20.607Z,101412.44
2022-11-28T20:27:42.540Z,101421.97
2022-11-28T20:30:12.994Z,101418.31
2022-11-28T20:32:41.610Z,101419.19
2022-11-28T20:35:12.471Z,101427.31
2022-11-28T20:37:41.171Z,101430.81
2022-11-28T20:40:12.094Z,101427.31
2022-11-28T20:42:40.743Z,101424.63
2022-11-28T20:45:10.567Z,101428.00
2022-11-28T20:47:39.542Z,101427.03
2022-11-28T20:50:11.974Z,101427.91
2022-11-28T20:52:40.585Z,101426.94
2022-11-28T20:55:10.349Z,101427.91
2022-11-28T20:57:39.293Z,101434.94
2022-11-28T21:00:10.452Z,101434.22
2022-11-28T21:02:39.243Z,101436.88
2022-11-28T21:05:14.715Z,101435.91
2022-11-28T21:07:43.311Z,101435.03
2022-11-28T21:10:12.484Z,101438.41
2022-11-28T21:12:41.136Z,101440.53
2022-11-28T21:15:11.500Z,101439.91
2022-11-28T21:17:40.182Z,101448.06
2022-11-28T21:20:12.369Z,101448.34
2022-11-28T21:22:40.971Z,101455.63
2022-11-28T21:25:09.771Z,101457.31
2022-11-28T21:27:38.446Z,101455.63
2022-11-28T21:30:10.236Z,101451.00
2022-11-28T21:32:39.003Z,101461.56
2022-11-28T21:35:09.148Z,101452.56
2022-11-28T21:37:39.721Z,101457.31
2022-11-28T21:40:10.571Z,101455.63
2022-11-28T21:42:39.147Z,101467.41
2022-11-28T21:45:09.566Z,101464.88
2022-11-28T21:47:38.159Z,101464.03
2022-11-28T21:50:08.700Z,101463.19
2022-11-28T21:52:39.287Z,101464.03
2022-11-28T21:55:08.818Z,101461.63
2022-11-28T21:57:37.382Z,101470.47
2022-11-28T22:00:08.467Z,101473.25
2022-11-28T22:02:39.835Z,101474.63
2022-11-28T22:05:09.475Z,101476.56
2022-11-28T22:07:40.112Z,101479.38
2022-11-28T22:10:10.864Z,101478.81
2022-11-28T22:12:39.431Z,101481.72
2022-11-28T22:15:09.429Z,101481.03
2022-11-28T22:17:38.232Z,101478.50
2022-11-28T22:20:09.911Z,101488.28
2022-11-28T22:22:40.606Z,101480.69
2022-11-28T22:25:10.124Z,101491.94
2022-11-28T22:27:39.392Z,101484.91
2022-11-28T22:30:10.424Z,101480.56
2022-11-28T22:32:38.994Z,101492.19
2022-11-28T22:35:09.627Z,101485.16
2022-11-28T22:37:40.170Z,101495.97
2022-11-28T22:40:11.469Z,101488.13
2022-11-28T22:42:40.154Z,101491.16
2022-11-28T22:45:10.833Z,101488.47
2022-11-28T22:47:39.392Z,101502.19
2022-11-28T22:50:10.056Z,101501.38
2022-11-28T22:52:41.179Z,101500.25
2022-11-28T22:55:10.702Z,101502.19
2022-11-28T22:57:39.350Z,101497.84
2022-11-28T23:00:11.053Z,101497.13
2022-11-28T23:02:39.750Z,101508.78
2022-11-28T23:05:09.328Z,101499.09
2022-11-28T23:07:39.959Z,101503.72
2022-11-28T23:10:10.483Z,101501.28
2022-11-28T23:12:40.099Z,101508.31
2022-11-28T23:15:11.131Z,101510.25
2022-11-28T23:17:40.488Z,101517.53
2022-11-28T23:20:11.061Z,101509.69
2022-11-28T23:22:41.515Z,101518.31
2022-11-28T23:25:11.040Z,101513.47
2022-11-28T23:27:39.662Z,101514.44
2022-11-28T23:30:10.423Z,101510.97
2022-11-28T23:32:39.034Z,101517.25
2022-11-28T23:35:08.677Z,101510.34
2022-11-28T23:37:41.262Z,101513.97
2022-11-28T23:40:11.939Z,101524.63
2022-11-28T23:42:41.079Z,101520.16
2022-11-28T23:45:12.191Z,101523.81
2022-11-28T23:47:40.768Z,101522.25
2022-11-28T23:50:11.072Z,101534.34
2022-11-28T23:52:41.564Z,101529.19
2022-11-28T23:55:11.044Z,101536.06
2022-11-28T23:57:39.938Z,101538.56
